createdAt,value
2018-10-07T00:01:18.223Z,236.95
2018-10-07T00:03:47.111Z,232.40
2018-10-07T00:06:16.013Z,225.30
2018-10-07T00:08:45.621Z,228.77
2018-10-07T00:11:14.947Z,230.40
2018-10-07T00:13:43.881Z,220.33
2018-10-07T00:16:12.549Z,221.75
2018-10-07T00:18:41.927Z,222.15
2018-10-07T00:21:10.600Z,224.92
2018-10-07T00:23:39.607Z,223.87
2018-10-07T00:26:09.373Z,223.28
2018-10-07T00:28:38.694Z,230.98
2018-10-07T00:31:09.461Z,227.22
2018-10-07T00:33:38.560Z,224.22
2018-10-07T00:36:08.290Z,225.15
2018-10-07T00:38:38.178Z,225.43
2018-10-07T00:41:08.202Z,227.15
2018-10-07T00:43:36.748Z,229.30
2018-10-07T00:46:05.302Z,224.05
2018-10-07T00:48:33.954Z,226.47
2018-10-07T00:51:04.103Z,229.60
2018-10-07T00:53:32.904Z,225.47
2018-10-07T00:56:02.173Z,222.78
2018-10-07T00:58:30.865Z,224.73
2018-10-07T01:00:59.861Z,227.47
2018-10-07T01:03:28.808Z,220.70
2018-10-07T01:05:58.021Z,219.68
2018-10-07T01:08:27.592Z,225.85
2018-10-07T01:10:56.265Z,218.55
2018-10-07T01:13:25.458Z,221.93
2018-10-07T01:15:54.706Z,222.80
2018-10-07T01:18:23.339Z,233.02
2018-10-07T01:20:51.987Z,220.25
2018-10-07T01:23:20.667Z,227.62
2018-10-07T01:25:50.280Z,227.00
2018-10-07T01:28:20.077Z,229.60
2018-10-07T01:30:51.332Z,226.00
2018-10-07T01:33:20.092Z,232.30
2018-10-07T01:35:49.883Z,222.60
2018-10-07T01:38:19.014Z,222.42
2018-10-07T01:40:48.244Z,225.53
2018-10-07T01:43:18.347Z,217.65
2018-10-07T01:45:48.199Z,227.53
2018-10-07T01:48:17.522Z,225.75
2018-10-07T01:50:46.399Z,223.60
2018-10-07T01:53:16.220Z,220.80
2018-10-07T01:55:44.907Z,224.18
2018-10-07T01:58:14.989Z,217.70
2018-10-07T02:00:44.227Z,214.57
2018-10-07T02:03:14.616Z,218.35
2018-10-07T02:05:43.270Z,219.87
2018-10-07T02:08:12.224Z,218.97
2018-10-07T02:10:40.937Z,219.40
2018-10-07T02:13:09.672Z,224.52
2018-10-07T02:15:38.716Z,225.50
2018-10-07T02:18:07.450Z,218.10
2018-10-07T02:20:35.981Z,221.10
2018-10-07T02:23:04.844Z,222.30
2018-10-07T02:25:33.627Z,216.10
2018-10-07T02:28:02.636Z,214.23
2018-10-07T02:30:31.617Z,216.90
2018-10-07T02:33:00.478Z,216.27
2018-10-07T02:35:29.541Z,212.68
2018-10-07T02:37:58.753Z,216.30
2018-10-07T02:40:28.070Z,219.28
2018-10-07T02:42:57.317Z,222.27
2018-10-07T02:45:26.016Z,222.30
2018-10-07T02:47:54.957Z,220.07
2018-10-07T02:50:25.324Z,227.50
2018-10-07T02:52:55.446Z,222.73
2018-10-07T02:55:25.475Z,222.75
2018-10-07T02:57:55.581Z,229.60
2018-10-07T03:05:54.044Z,220.15
2018-10-07T03:08:22.555Z,222.73
2018-10-07T03:10:51.392Z,219.28
2018-10-07T03:13:20.164Z,220.00
2018-10-07T03:15:49.351Z,220.15
2018-10-07T03:18:18.095Z,217.28
2018-10-07T03:20:47.005Z,234.62
2018-10-07T03:23:15.584Z,222.55
2018-10-07T03:25:44.236Z,218.85
2018-10-07T03:28:13.662Z,223.15
2018-10-07T03:30:42.616Z,227.22
2018-10-07T03:33:11.744Z,224.40
2018-10-07T03:35:40.659Z,224.30
2018-10-07T03:38:09.397Z,220.17
2018-10-07T03:40:38.063Z,219.35
2018-10-07T03:43:07.856Z,222.75
2018-10-07T03:45:36.731Z,233.40
2018-10-07T03:48:06.039Z,221.72
2018-10-07T03:50:34.802Z,220.93
2018-10-07T03:53:03.713Z,231.93
2018-10-07T03:55:32.243Z,219.35
2018-10-07T03:58:00.845Z,216.85
2018-10-07T04:00:29.417Z,225.55
2018-10-07T04:02:58.375Z,259.50
2018-10-07T04:05:27.159Z,246.95
2018-10-07T04:07:56.353Z,229.85
2018-10-07T04:10:26.728Z,228.83
2018-10-07T04:12:55.635Z,226.85
2018-10-07T04:15:24.360Z,226.47
2018-10-07T04:17:53.036Z,222.22
2018-10-07T04:20:22.502Z,230.00
2018-10-07T04:22:51.375Z,224.32
2018-10-07T04:25:20.201Z,227.07
2018-10-07T04:27:49.089Z,232.52
2018-10-07T04:30:17.883Z,219.95
2018-10-07T04:32:47.104Z,230.47
2018-10-07T04:35:15.979Z,220.45
2018-10-07T04:37:45.246Z,231.30
2018-10-07T04:40:14.726Z,241.05
2018-10-07T04:42:43.783Z,224.27
2018-10-07T04:45:12.764Z,247.48
2018-10-07T04:47:41.986Z,222.93
2018-10-07T04:50:10.733Z,222.17
2018-10-07T04:52:39.441Z,224.40
2018-10-07T04:55:08.616Z,217.87
2018-10-07T04:57:38.516Z,221.43
2018-10-07T05:00:07.816Z,219.37
2018-10-07T05:02:36.499Z,217.57
2018-10-07T05:05:05.283Z,220.75
2018-10-07T05:07:34.188Z,219.72
2018-10-07T05:10:09.084Z,231.17
2018-10-07T05:12:37.732Z,223.07
2018-10-07T05:15:07.306Z,219.72
2018-10-07T05:17:36.537Z,220.70
2018-10-07T05:20:05.484Z,221.77
2018-10-07T05:22:34.253Z,220.97
2018-10-07T05:25:03.200Z,220.78
2018-10-07T05:27:32.146Z,227.70
2018-10-07T05:30:00.826Z,222.63
2018-10-07T05:32:30.095Z,218.67
2018-10-07T05:34:59.211Z,220.93
2018-10-07T05:37:28.070Z,218.97
2018-10-07T05:39:56.773Z,221.87
2018-10-07T05:42:26.014Z,218.22
2018-10-07T05:44:54.736Z,226.20
2018-10-07T05:47:23.400Z,219.20
2018-10-07T05:49:52.153Z,221.55
2018-10-07T05:52:21.126Z,224.05
2018-10-07T05:54:50.166Z,233.00
2018-10-07T05:57:19.028Z,221.43
2018-10-07T05:59:47.991Z,215.30
2018-10-07T06:02:16.966Z,211.55
2018-10-07T06:04:51.241Z,222.70
2018-10-07T06:07:19.991Z,225.65
2018-10-07T06:09:48.756Z,224.00
2018-10-07T06:12:17.485Z,217.37
2018-10-07T06:14:51.384Z,216.78
2018-10-07T06:17:20.057Z,222.52
2018-10-07T06:19:48.961Z,216.50
2018-10-07T06:25:08.462Z,218.65
2018-10-07T06:27:37.143Z,221.60
2018-10-07T06:30:06.370Z,222.90
2018-10-07T06:32:35.270Z,227.50
2018-10-07T06:35:04.985Z,231.05
2018-10-07T06:37:33.707Z,223.68
2018-10-07T06:40:02.800Z,228.92
2018-10-07T06:42:32.196Z,223.30
2018-10-07T06:45:01.031Z,233.47
2018-10-07T06:47:29.956Z,224.95
2018-10-07T06:49:58.808Z,227.07
2018-10-07T06:52:28.865Z,224.55
2018-10-07T06:54:57.899Z,220.00
2018-10-07T06:57:28.010Z,232.25
2018-10-07T06:59:56.773Z,224.45
2018-10-07T07:02:26.154Z,229.65
2018-10-07T07:04:57.414Z,228.12
2018-10-07T07:07:27.018Z,239.97
2018-10-07T07:09:56.217Z,239.70
2018-10-07T07:12:25.546Z,256.00
2018-10-07T07:14:54.798Z,230.72
2018-10-07T07:17:23.866Z,237.05
2018-10-07T07:19:54.154Z,237.25
2018-10-07T07:22:23.968Z,240.32
2018-10-07T07:24:53.671Z,240.57
2018-10-07T07:27:22.751Z,287.52
2018-10-07T07:29:52.152Z,284.98
2018-10-07T07:32:21.180Z,243.85
2018-10-07T07:34:50.745Z,236.80
2018-10-07T07:37:20.028Z,236.12
2018-10-07T07:39:49.013Z,245.55
2018-10-07T07:42:18.229Z,252.25
2018-10-07T07:44:47.401Z,256.52
2018-10-07T07:47:16.133Z,274.92
2018-10-07T07:49:45.161Z,271.37
2018-10-07T07:52:14.052Z,268.95
2018-10-07T07:54:43.861Z,270.15
2018-10-07T07:57:13.493Z,279.23
2018-10-07T07:59:42.982Z,259.35
2018-10-07T08:02:12.486Z,249.12
2018-10-07T08:04:41.325Z,252.62
2018-10-07T08:07:10.436Z,244.22
2018-10-07T08:09:39.535Z,246.22
2018-10-07T08:12:08.400Z,261.52
2018-10-07T08:14:37.468Z,253.67
2018-10-07T08:17:06.915Z,249.25
2018-10-07T08:19:36.898Z,259.55
2018-10-07T08:22:05.514Z,263.80
2018-10-07T08:24:35.508Z,266.80
2018-10-07T08:27:04.469Z,282.40
2018-10-07T08:29:34.724Z,290.23
2018-10-07T08:32:05.264Z,303.85
2018-10-07T08:34:35.758Z,281.80
2018-10-07T08:37:06.383Z,285.40
2018-10-07T08:39:37.855Z,288.78
2018-10-07T08:42:06.729Z,300.48
2018-10-07T08:44:36.130Z,291.10
2018-10-07T08:47:05.145Z,295.97
2018-10-07T08:49:35.349Z,318.55
2018-10-07T08:52:06.360Z,317.15
2018-10-07T08:54:36.567Z,280.00
2018-10-07T08:57:05.594Z,302.48
2018-10-07T08:59:34.664Z,326.50
2018-10-07T09:02:04.309Z,312.27
2018-10-07T09:04:34.091Z,332.95
2018-10-07T09:07:04.949Z,323.70
2018-10-07T09:09:40.099Z,289.35
2018-10-07T09:14:54.826Z,305.85
2018-10-07T09:17:27.610Z,320.30
2018-10-07T09:19:56.843Z,321.85
2018-10-07T09:22:26.597Z,368.97
2018-10-07T09:24:56.678Z,383.35
2018-10-07T09:30:17.645Z,337.27
2018-10-07T09:32:49.636Z,380.85
2018-10-07T09:35:20.916Z,361.20
2018-10-07T09:37:51.680Z,364.98
2018-10-07T09:40:21.574Z,339.20
2018-10-07T09:42:52.101Z,355.15
2018-10-07T09:45:22.435Z,423.55
2018-10-07T09:47:57.251Z,414.40
2018-10-07T09:50:26.984Z,432.27
2018-10-07T09:52:56.532Z,410.90
2018-10-07T09:55:26.756Z,366.50
2018-10-07T09:57:56.244Z,359.10
2018-10-07T10:00:30.590Z,363.73
2018-10-07T10:03:01.359Z,380.57
2018-10-07T10:05:34.968Z,393.27
2018-10-07T10:08:03.687Z,349.75
2018-10-07T10:10:32.792Z,355.25
2018-10-07T10:13:02.269Z,349.48
2018-10-07T10:15:31.053Z,307.12
2018-10-07T10:18:02.492Z,315.35
2018-10-07T10:20:36.134Z,314.70
2018-10-07T10:23:10.694Z,334.98
2018-10-07T10:25:45.294Z,325.82
2018-10-07T10:28:19.977Z,330.80
2018-10-07T10:30:55.777Z,363.70
2018-10-07T10:33:29.879Z,358.38
2018-10-07T10:36:07.033Z,343.93
2018-10-07T10:38:43.496Z,322.00
2018-10-07T10:41:24.452Z,310.02
2018-10-07T10:44:00.813Z,297.80
2018-10-07T10:46:37.382Z,310.02
2018-10-07T10:49:08.430Z,308.20
2018-10-07T10:51:42.067Z,321.80
2018-10-07T10:54:18.049Z,321.00
2018-10-07T10:56:49.290Z,291.10
2018-10-07T10:59:35.509Z,309.07
2018-10-07T11:02:08.997Z,290.92
2018-10-07T11:04:39.208Z,322.07
2018-10-07T11:07:15.604Z,275.30
2018-10-07T11:10:01.809Z,293.00
2018-10-07T11:12:39.499Z,302.10
2018-10-07T11:15:24.001Z,297.95
2018-10-07T11:17:59.298Z,285.55
2018-10-07T11:21:35.191Z,302.45
2018-10-07T11:24:14.701Z,309.12
2018-10-07T11:28:55.638Z,297.77
2018-10-07T11:32:31.799Z,282.02
2018-10-07T11:35:05.681Z,278.18
2018-10-07T11:37:39.530Z,283.55
2018-10-07T11:40:13.503Z,296.12
2018-10-07T11:42:45.136Z,316.27
2018-10-07T11:45:17.302Z,303.62
2018-10-07T11:48:03.551Z,317.87
2018-10-07T11:50:39.989Z,312.65
2018-10-07T11:53:09.377Z,297.42
2018-10-07T11:55:38.010Z,289.48
2018-10-07T11:58:07.938Z,291.75
2018-10-07T12:00:37.439Z,290.60
2018-10-07T12:03:07.990Z,296.02
2018-10-07T12:05:38.386Z,298.82
2018-10-07T12:08:08.595Z,295.00
2018-10-07T12:10:38.084Z,292.15
2018-10-07T12:13:08.374Z,276.90
2018-10-07T12:15:38.069Z,261.70
2018-10-07T12:18:08.256Z,270.25
2018-10-07T12:20:38.591Z,267.73
2018-10-07T12:23:09.119Z,282.60
2018-10-07T12:25:39.961Z,262.02
2018-10-07T12:28:13.957Z,275.05
2018-10-07T12:30:47.285Z,278.32
2018-10-07T12:33:18.468Z,268.33
2018-10-07T12:35:50.486Z,278.50
2018-10-07T12:38:24.190Z,275.22
2018-10-07T12:40:53.448Z,267.55
2018-10-07T12:43:23.287Z,274.02
2018-10-07T12:45:55.940Z,265.98
2018-10-07T12:48:27.253Z,280.40
2018-10-07T12:50:58.586Z,267.68
2018-10-07T12:53:29.506Z,279.02
2018-10-07T12:56:00.660Z,270.85
2018-10-07T12:58:29.745Z,262.17
2018-10-07T13:00:58.981Z,283.38
2018-10-07T13:03:29.272Z,263.62
2018-10-07T13:05:58.731Z,282.73
2018-10-07T13:08:28.525Z,275.45
2018-10-07T13:10:58.596Z,277.73
2018-10-07T13:13:27.849Z,264.23
2018-10-07T13:15:57.805Z,258.82
2018-10-07T13:18:29.680Z,273.73
2018-10-07T13:21:00.069Z,271.35
2018-10-07T13:23:29.100Z,264.40
2018-10-07T13:26:00.385Z,264.90
2018-10-07T13:28:30.280Z,282.57
2018-10-07T13:31:01.249Z,273.15
2018-10-07T13:33:31.720Z,269.20
2018-10-07T13:36:03.420Z,277.75
2018-10-07T13:38:34.541Z,268.15
2018-10-07T13:41:08.446Z,284.25
2018-10-07T13:43:40.922Z,271.70
2018-10-07T13:46:14.268Z,276.98
2018-10-07T13:48:44.646Z,269.10
2018-10-07T13:51:17.644Z,267.57
2018-10-07T13:53:48.019Z,263.20
2018-10-07T13:56:18.690Z,272.77
2018-10-07T13:58:48.756Z,258.15
2018-10-07T14:01:19.850Z,261.00
2018-10-07T14:03:49.658Z,262.95
2018-10-07T14:06:20.215Z,272.37
2018-10-07T14:08:51.151Z,275.13
2018-10-07T14:11:22.663Z,285.85
2018-10-07T14:13:55.098Z,261.92
2018-10-07T14:16:26.885Z,264.45
2018-10-07T14:18:56.051Z,294.77
2018-10-07T14:21:27.558Z,257.40
2018-10-07T14:23:57.179Z,250.50
2018-10-07T14:26:27.165Z,240.72
2018-10-07T14:28:57.093Z,253.05
2018-10-07T14:31:29.153Z,240.70
2018-10-07T14:34:02.288Z,248.78
2018-10-07T14:36:36.144Z,250.87
2018-10-07T14:39:07.721Z,238.52
2018-10-07T14:41:37.520Z,245.17
2018-10-07T14:44:06.824Z,256.73
2018-10-07T14:46:37.834Z,248.95
2018-10-07T14:53:34.069Z,251.92
2018-10-07T14:56:05.955Z,240.12
2018-10-07T14:58:38.413Z,251.50
2018-10-07T15:01:08.922Z,243.63
2018-10-07T15:03:38.430Z,241.17
2018-10-07T15:06:09.264Z,243.05
2018-10-07T15:08:39.214Z,234.65
2018-10-07T15:11:09.383Z,239.25
2018-10-07T15:13:40.516Z,249.00
2018-10-07T15:16:10.199Z,240.10
2018-10-07T15:18:39.188Z,242.05
2018-10-07T15:21:08.605Z,242.15
2018-10-07T15:23:38.045Z,234.47
2018-10-07T15:26:08.358Z,237.90
2018-10-07T15:28:37.486Z,246.10
2018-10-07T15:31:06.545Z,261.90
2018-10-07T15:33:35.657Z,237.72
2018-10-07T15:36:08.081Z,233.45
2018-10-07T15:38:37.874Z,240.00
2018-10-07T15:41:07.608Z,236.87
2018-10-07T15:43:37.222Z,239.60
2018-10-07T15:46:06.447Z,239.70
2018-10-07T15:48:35.592Z,234.80
2018-10-07T15:51:08.149Z,237.48
2018-10-07T15:53:38.333Z,267.45
2018-10-07T15:56:16.933Z,251.70
2018-10-07T15:58:46.962Z,234.60
2018-10-07T16:01:16.639Z,233.70
2018-10-07T16:03:45.490Z,237.32
2018-10-07T16:06:23.092Z,241.75
2018-10-07T16:08:54.985Z,238.12
2018-10-07T16:11:28.386Z,240.28
2018-10-07T16:13:58.751Z,250.15
2018-10-07T16:16:30.355Z,232.35
2018-10-07T16:19:01.891Z,235.97
2018-10-07T16:21:35.264Z,231.72
2018-10-07T16:24:07.141Z,234.03
2018-10-07T16:26:41.761Z,239.93
2018-10-07T16:29:13.843Z,232.52
2018-10-07T16:31:48.868Z,231.60
2018-10-07T16:34:20.614Z,237.42
2018-10-07T16:36:52.593Z,241.68
2018-10-07T16:39:23.673Z,237.78
2018-10-07T16:41:53.985Z,241.12
2018-10-07T16:44:24.177Z,240.22
2018-10-07T16:46:55.202Z,233.55
2018-10-07T16:49:25.873Z,249.25
2018-10-07T16:51:55.189Z,228.75
2018-10-07T16:54:25.214Z,241.45
2018-10-07T16:56:56.151Z,238.90
2018-10-07T16:59:27.949Z,237.82
2018-10-07T17:01:59.293Z,245.90
2018-10-07T17:04:29.248Z,234.43
2018-10-07T17:07:01.488Z,230.83
2018-10-07T17:09:32.930Z,232.52
2018-10-07T17:12:03.400Z,233.15
2018-10-07T17:14:36.593Z,237.65
2018-10-07T17:17:09.495Z,230.45
2018-10-07T17:19:44.017Z,233.93
2018-10-07T17:22:14.939Z,236.07
2018-10-07T17:24:47.727Z,241.63
2018-10-07T17:27:19.776Z,241.82
2018-10-07T17:29:54.532Z,233.02
2018-10-07T17:32:28.195Z,234.52
2018-10-07T17:34:59.389Z,232.83
2018-10-07T17:37:31.297Z,224.47
2018-10-07T17:40:02.389Z,238.28
2018-10-07T17:42:34.803Z,230.45
2018-10-07T17:45:04.748Z,239.27
2018-10-07T17:47:36.509Z,231.20
2018-10-07T17:50:06.472Z,243.97
2018-10-07T17:52:38.299Z,240.20
2018-10-07T17:55:09.011Z,233.68
2018-10-07T17:57:43.301Z,225.90
2018-10-07T18:00:15.021Z,230.57
2018-10-07T18:02:45.088Z,234.47
2018-10-07T18:05:19.149Z,232.05
2018-10-07T18:07:49.739Z,223.45
2018-10-07T18:10:19.369Z,233.68
2018-10-07T18:12:55.730Z,223.07
2018-10-07T18:15:28.213Z,223.40
2018-10-07T18:18:00.223Z,225.18
2018-10-07T18:20:33.719Z,217.95
2018-10-07T18:23:06.159Z,235.70
2018-10-07T18:25:43.428Z,215.75
2018-10-07T18:28:18.065Z,242.05
2018-10-07T18:30:48.370Z,221.47
2018-10-07T18:33:23.982Z,218.67
2018-10-07T18:36:01.685Z,220.25
2018-10-07T18:38:31.318Z,216.12
2018-10-07T18:41:02.204Z,224.42
2018-10-07T18:43:36.194Z,231.00
2018-10-07T18:46:14.807Z,216.38
2018-10-07T18:48:48.310Z,220.27
2018-10-07T18:51:22.376Z,226.92
2018-10-07T18:53:54.630Z,222.82
2018-10-07T18:56:24.416Z,219.30
2018-10-07T18:58:54.523Z,223.87
2018-10-07T19:01:24.453Z,224.58
2018-10-07T19:03:55.452Z,219.50
2018-10-07T19:06:27.085Z,219.45
2018-10-07T19:08:58.458Z,218.22
2018-10-07T19:11:31.875Z,220.95
2018-10-07T19:14:04.509Z,233.30
2018-10-07T19:16:36.955Z,215.87
2018-10-07T19:19:08.586Z,212.72
2018-10-07T19:21:40.595Z,217.62
2018-10-07T19:24:11.088Z,221.30
2018-10-07T19:26:42.863Z,225.10
2018-10-07T19:29:14.984Z,221.15
2018-10-07T19:31:45.310Z,213.03
2018-10-07T19:34:16.010Z,217.18
2018-10-07T19:36:48.339Z,219.03
2018-10-07T19:39:17.634Z,221.47
2018-10-07T19:41:49.302Z,219.45
2018-10-07T19:44:27.157Z,216.75
2018-10-07T19:47:02.425Z,215.40
2018-10-07T19:49:33.638Z,237.90
2018-10-07T19:52:04.757Z,226.65
2018-10-07T19:54:35.301Z,228.92
2018-10-07T19:57:08.358Z,221.90
2018-10-07T19:59:41.486Z,217.45
2018-10-07T20:02:13.957Z,218.65
2018-10-07T20:04:46.088Z,223.05
2018-10-07T20:07:16.060Z,214.00
2018-10-07T20:09:49.506Z,215.10
2018-10-07T20:12:23.374Z,215.75
2018-10-07T20:14:55.332Z,218.55
2018-10-07T20:17:32.631Z,215.22
2018-10-07T20:20:04.487Z,218.22
2018-10-07T20:22:37.280Z,220.93
2018-10-07T20:25:08.009Z,216.27
2018-10-07T20:27:39.140Z,220.63
2018-10-07T20:30:10.642Z,224.10
2018-10-07T20:32:43.580Z,215.60
2018-10-07T20:35:14.707Z,215.37
2018-10-07T20:37:47.792Z,209.70
2018-10-07T20:40:19.770Z,220.02
2018-10-07T20:42:51.793Z,223.75
2018-10-07T20:45:22.176Z,213.72
2018-10-07T20:47:52.823Z,224.85
2018-10-07T20:50:25.333Z,223.53
2018-10-07T20:52:55.878Z,221.15
2018-10-07T20:55:26.546Z,222.55
2018-10-07T20:57:57.689Z,226.70
2018-10-07T21:00:28.112Z,215.92
2018-10-07T21:02:59.867Z,218.90
2018-10-07T21:05:33.334Z,220.88
2018-10-07T21:08:02.486Z,225.35
2018-10-07T21:10:32.392Z,226.37
2018-10-07T21:13:01.228Z,222.12
2018-10-07T21:15:30.173Z,218.30
2018-10-07T21:17:59.268Z,231.80
2018-10-07T21:20:29.284Z,226.60
2018-10-07T21:22:58.684Z,221.68
2018-10-07T21:25:27.488Z,213.95
2018-10-07T21:27:56.758Z,214.02
2018-10-07T21:30:25.849Z,214.17
2018-10-07T21:32:55.402Z,218.82
2018-10-07T21:35:24.084Z,223.75
2018-10-07T21:37:54.009Z,223.03
2018-10-07T21:40:23.311Z,217.97
2018-10-07T21:42:52.499Z,219.82
2018-10-07T21:45:21.394Z,229.80
2018-10-07T21:47:50.491Z,227.60
2018-10-07T21:50:19.680Z,234.15
2018-10-07T21:55:35.496Z,225.00
2018-10-07T21:58:05.303Z,217.15
2018-10-07T22:00:35.275Z,215.47
2018-10-07T22:03:04.431Z,213.95
2018-10-07T22:05:33.469Z,213.43
2018-10-07T22:08:02.613Z,216.15
2018-10-07T22:10:31.685Z,220.40
2018-10-07T22:13:01.012Z,222.70
2018-10-07T22:15:29.904Z,218.40
2018-10-07T22:17:58.953Z,212.27
2018-10-07T22:20:28.271Z,211.03
2018-10-07T22:22:57.570Z,213.72
2018-10-07T22:25:26.743Z,215.20
2018-10-07T22:27:55.958Z,220.37
2018-10-07T22:30:25.199Z,215.22
2018-10-07T22:32:54.045Z,219.50
2018-10-07T22:35:22.787Z,223.95
2018-10-07T22:37:52.294Z,220.00
2018-10-07T22:40:21.535Z,221.47
2018-10-07T22:42:50.363Z,222.67
2018-10-07T22:45:19.667Z,222.02
2018-10-07T22:47:52.365Z,218.85
2018-10-07T22:50:21.213Z,221.90
2018-10-07T22:52:50.418Z,223.68
2018-10-07T22:55:20.229Z,220.65
2018-10-07T22:57:49.159Z,223.72
2018-10-07T23:00:18.125Z,222.07
2018-10-07T23:02:46.824Z,221.43
2018-10-07T23:05:15.524Z,221.30
2018-10-07T23:07:44.186Z,218.10
2018-10-07T23:10:13.005Z,223.10
2018-10-07T23:12:41.799Z,219.43
2018-10-07T23:15:10.477Z,225.18
2018-10-07T23:17:40.175Z,226.65
2018-10-07T23:20:08.991Z,224.30
2018-10-07T23:22:37.840Z,222.35
2018-10-07T23:25:06.655Z,212.00
2018-10-07T23:27:36.360Z,212.12
2018-10-07T23:30:05.436Z,211.62
2018-10-07T23:32:34.769Z,223.28
2018-10-07T23:35:03.541Z,237.10
2018-10-07T23:37:32.487Z,222.73
2018-10-07T23:40:01.179Z,229.32
2018-10-07T23:42:29.849Z,229.50
2018-10-07T23:44:59.231Z,217.28
2018-10-07T23:47:28.200Z,228.35
2018-10-07T23:49:56.976Z,228.32
2018-10-07T23:52:27.357Z,233.57
2018-10-07T23:54:56.144Z,240.62
2018-10-07T23:57:25.666Z,243.35
2018-10-07T23:59:54.299Z,218.50
